createdAt,value
2018-04-19T00:00:48.528Z,82.20
2018-04-19T00:03:16.141Z,82.10
2018-04-19T00:05:43.766Z,82.10
2018-04-19T00:08:11.374Z,81.90
2018-04-19T00:10:38.995Z,82.30
2018-04-19T00:13:06.611Z,81.30
2018-04-19T00:15:34.994Z,81.40
2018-04-19T00:18:02.619Z,81.20
2018-04-19T00:20:30.242Z,79.40
2018-04-19T00:22:58.158Z,79.30
2018-04-19T00:25:25.747Z,79.10
2018-04-19T00:27:53.370Z,79.70
2018-04-19T00:30:20.991Z,79.50
2018-04-19T00:32:49.374Z,80.90
2018-04-19T00:35:17.767Z,79.20
2018-04-19T00:37:45.396Z,79.20
2018-04-19T00:40:13.020Z,78.70
2018-04-19T00:42:40.634Z,75.60
2018-04-19T00:45:09.016Z,77.70
2018-04-19T00:47:37.407Z,78.10
2018-04-19T00:50:05.287Z,78.10
2018-04-19T00:52:44.823Z,78.00
2018-04-19T00:55:13.216Z,79.40
2018-04-19T00:57:41.595Z,79.10
2018-04-19T01:00:09.983Z,79.30
2018-04-19T01:02:38.382Z,79.30
2018-04-19T01:05:05.999Z,79.20
2018-04-19T01:07:33.628Z,80.30
2018-04-19T01:10:01.272Z,80.00
2018-04-19T01:12:29.652Z,81.10
2018-04-19T01:14:57.279Z,80.90
2018-04-19T01:17:24.899Z,80.70
2018-04-19T01:19:52.515Z,80.70
2018-04-19T01:22:20.135Z,79.80
2018-04-19T01:24:47.757Z,79.90
2018-04-19T01:27:15.375Z,80.40
2018-04-19T01:29:42.991Z,81.40
2018-04-19T01:32:10.616Z,81.60
2018-04-19T01:34:38.231Z,82.00
2018-04-19T01:37:05.850Z,81.80
2018-04-19T01:39:33.471Z,82.80
2018-04-19T01:42:01.851Z,82.90
2018-04-19T01:44:29.470Z,82.80
2018-04-19T01:46:57.095Z,82.30
2018-04-19T01:49:25.500Z,82.00
2018-04-19T01:51:53.102Z,82.00
2018-04-19T01:54:20.722Z,83.00
2018-04-19T01:56:48.343Z,83.50
2018-04-19T01:59:15.963Z,83.80
2018-04-19T02:01:43.583Z,83.60
2018-04-19T02:04:11.218Z,83.00
2018-04-19T02:06:38.842Z,84.20
2018-04-19T02:09:07.227Z,83.50
2018-04-19T02:11:35.631Z,83.10
2018-04-19T02:14:03.351Z,83.10
2018-04-19T02:16:31.007Z,83.40
2018-04-19T02:18:58.630Z,83.80
2018-04-19T02:21:26.250Z,84.40
2018-04-19T02:23:53.871Z,84.10
2018-04-19T02:26:21.487Z,84.70
2018-04-19T02:28:49.876Z,85.50
2018-04-19T02:31:18.271Z,85.00
2018-04-19T02:33:46.652Z,84.80
2018-04-19T02:36:15.039Z,85.50
2018-04-19T02:38:43.430Z,85.00
2018-04-19T02:41:11.055Z,85.00
2018-04-19T02:43:38.680Z,84.30
2018-04-19T02:46:06.296Z,85.30
2018-04-19T02:48:33.914Z,84.60
2018-04-19T02:51:01.536Z,84.50
2018-04-19T02:53:29.931Z,85.70
2018-04-19T02:55:58.315Z,85.40
2018-04-19T02:58:25.937Z,85.40
2018-04-19T03:00:53.555Z,83.70
2018-04-19T03:03:21.174Z,84.50
2018-04-19T03:05:48.800Z,85.50
2018-04-19T03:08:16.423Z,85.90
2018-04-19T03:10:44.057Z,85.10
2018-04-19T03:13:11.684Z,84.90
2018-04-19T03:15:39.295Z,85.50
2018-04-19T03:18:06.914Z,85.20
2018-04-19T03:20:34.552Z,85.70
2018-04-19T03:23:02.176Z,85.90
2018-04-19T03:25:29.797Z,86.00
2018-04-19T03:27:58.184Z,86.80
2018-04-19T03:30:26.569Z,86.30
2018-04-19T03:32:54.954Z,85.70
2018-04-19T03:35:22.599Z,85.70
2018-04-19T03:37:50.193Z,86.00
2018-04-19T03:40:17.820Z,87.20
2018-04-19T03:42:45.451Z,86.20
2018-04-19T03:45:13.089Z,85.40
2018-04-19T03:47:41.467Z,87.20
2018-04-19T03:50:09.083Z,87.10
2018-04-19T03:52:36.715Z,87.10
2018-04-19T03:55:04.335Z,86.70
2018-04-19T03:57:33.461Z,87.50
2018-04-19T04:00:01.848Z,87.40
2018-04-19T04:02:29.467Z,87.40
2018-04-19T04:04:57.079Z,87.20
2018-04-19T04:07:24.703Z,87.20
2018-04-19T04:09:52.318Z,87.40
2018-04-19T04:12:19.938Z,87.30
2018-04-19T04:14:47.560Z,87.60
2018-04-19T04:17:27.150Z,86.70
2018-04-19T04:20:06.683Z,87.00
2018-04-19T04:22:46.122Z,86.80
2018-04-19T04:25:26.390Z,86.90
2018-04-19T04:27:54.781Z,86.40
2018-04-19T04:30:23.178Z,86.10
2018-04-19T04:32:50.805Z,85.90
2018-04-19T04:35:18.423Z,86.90
2018-04-19T04:37:46.046Z,86.90
2018-04-19T04:40:13.667Z,86.80
2018-04-19T04:42:41.283Z,87.80
2018-04-19T04:45:09.667Z,87.20
2018-04-19T04:47:38.068Z,87.40
2018-04-19T04:50:05.714Z,87.30
2018-04-19T04:52:33.323Z,87.60
2018-04-19T04:55:00.930Z,87.10
2018-04-19T04:57:28.549Z,87.30
2018-04-19T04:59:56.171Z,87.30
2018-04-19T05:02:23.795Z,87.70
2018-04-19T05:04:51.414Z,87.40
2018-04-19T05:07:19.807Z,88.30
2018-04-19T05:09:48.187Z,88.00
2018-04-19T05:12:16.573Z,88.30
2018-04-19T05:14:44.955Z,88.00
2018-04-19T05:17:13.349Z,88.40
2018-04-19T05:19:42.706Z,88.60
2018-04-19T05:22:10.355Z,88.70
2018-04-19T05:24:37.948Z,88.30
2018-04-19T05:27:06.143Z,88.70
2018-04-19T05:29:34.558Z,90.00
2018-04-19T05:32:02.170Z,90.00
2018-04-19T05:34:29.798Z,89.90
2018-04-19T05:36:57.410Z,90.00
2018-04-19T05:39:25.357Z,90.40
2018-04-19T05:41:52.988Z,90.30
2018-04-19T05:44:20.605Z,90.50
2018-04-19T05:46:48.231Z,90.70
2018-04-19T05:49:15.844Z,90.50
2018-04-19T05:51:43.455Z,90.70
2018-04-19T05:54:11.067Z,90.80
2018-04-19T05:56:38.695Z,90.70
2018-04-19T05:59:09.471Z,90.70
2018-04-19T06:01:37.090Z,91.40
2018-04-19T06:04:04.703Z,90.70
2018-04-19T06:06:32.326Z,91.20
2018-04-19T06:08:59.946Z,91.20
2018-04-19T06:11:27.562Z,91.20
2018-04-19T06:13:55.182Z,91.50
2018-04-19T06:16:22.791Z,91.10
2018-04-19T06:18:50.407Z,91.60
2018-04-19T06:21:18.027Z,91.90
2018-04-19T06:23:45.649Z,91.80
2018-04-19T06:26:13.267Z,91.90
2018-04-19T06:28:40.896Z,90.90
2018-04-19T06:31:09.279Z,90.60
2018-04-19T06:33:37.671Z,91.00
2018-04-19T06:36:05.301Z,90.90
2018-04-19T06:38:32.906Z,90.80
2018-04-19T06:41:00.526Z,90.60
2018-04-19T06:43:28.142Z,90.40
2018-04-19T06:45:55.762Z,90.20
2018-04-19T06:48:23.382Z,90.10
2018-04-19T06:50:51.007Z,89.00
2018-04-19T06:53:18.635Z,89.40
2018-04-19T06:55:46.251Z,90.40
2018-04-19T06:58:14.638Z,89.00
2018-04-19T07:00:42.260Z,88.20
2018-04-19T07:03:09.880Z,88.10
2018-04-19T07:05:37.510Z,88.90
2018-04-19T07:08:05.123Z,88.80
2018-04-19T07:10:32.747Z,87.90
2018-04-19T07:13:00.367Z,87.50
2018-04-19T07:15:27.991Z,88.30
2018-04-19T07:17:56.377Z,85.40
2018-04-19T07:20:24.036Z,85.30
2018-04-19T07:22:51.619Z,83.70
2018-04-19T07:25:19.236Z,84.80
2018-04-19T07:27:46.855Z,80.90
2018-04-19T07:30:14.474Z,79.80
2018-04-19T07:32:42.094Z,78.40
2018-04-19T07:35:09.715Z,77.30
2018-04-19T07:37:37.339Z,78.20
2018-04-19T07:40:04.958Z,76.10
2018-04-19T07:42:33.342Z,75.80
2018-04-19T07:45:00.959Z,75.80
2018-04-19T07:47:28.571Z,74.00
2018-04-19T07:49:56.959Z,72.40
2018-04-19T07:52:25.342Z,73.50
2018-04-19T07:54:53.734Z,69.30
2018-04-19T07:57:22.124Z,67.50
2018-04-19T07:59:50.503Z,67.30
2018-04-19T08:02:18.134Z,67.20
2018-04-19T08:04:45.753Z,68.90
2018-04-19T08:07:13.380Z,71.90
2018-04-19T08:09:40.994Z,70.70
2018-04-19T08:12:08.615Z,67.80
2018-04-19T08:14:37.014Z,69.10
2018-04-19T08:17:05.402Z,67.40
2018-04-19T08:19:33.023Z,67.50
2018-04-19T08:22:00.652Z,66.10
2018-04-19T08:24:28.311Z,63.50
2018-04-19T08:26:55.888Z,66.00
2018-04-19T08:29:23.499Z,64.90
2018-04-19T08:31:51.123Z,62.90
2018-04-19T08:34:18.747Z,63.90
2018-04-19T08:36:46.391Z,63.60
2018-04-19T08:39:14.028Z,61.80
2018-04-19T08:41:41.643Z,61.30
2018-04-19T08:44:10.034Z,53.90
2018-04-19T08:46:38.421Z,52.00
2018-04-19T08:49:06.799Z,51.10
2018-04-19T08:51:35.187Z,55.10
2018-04-19T08:54:03.579Z,48.70
2018-04-19T08:56:31.203Z,48.70
2018-04-19T08:58:58.814Z,51.00
2018-04-19T09:01:26.434Z,49.00
2018-04-19T09:03:54.047Z,47.10
2018-04-19T09:06:21.667Z,46.50
2018-04-19T09:08:49.287Z,46.40
2018-04-19T09:11:16.923Z,43.30
2018-04-19T09:13:45.316Z,42.10
2018-04-19T09:16:13.703Z,47.80
2018-04-19T09:18:41.337Z,47.60
2018-04-19T09:21:08.942Z,43.00
2018-04-19T09:23:36.567Z,45.00
2018-04-19T09:26:04.188Z,41.60
2018-04-19T09:28:31.802Z,40.50
2018-04-19T09:30:59.431Z,41.00
2018-04-19T09:33:27.043Z,38.40
2018-04-19T09:35:55.439Z,31.00
2018-04-19T09:38:23.822Z,31.80
2018-04-19T09:40:52.208Z,32.40
2018-04-19T09:43:20.595Z,29.20
2018-04-19T09:45:48.216Z,29.20
2018-04-19T09:48:15.844Z,28.40
2018-04-19T09:50:43.476Z,27.90
2018-04-19T09:53:11.864Z,28.50
2018-04-19T09:55:40.243Z,26.80
2018-04-19T09:58:08.636Z,26.50
2018-04-19T10:00:36.256Z,26.40
2018-04-19T10:03:03.922Z,24.40
2018-04-19T10:05:31.543Z,24.10
2018-04-19T10:07:59.171Z,20.50
2018-04-19T10:10:26.824Z,24.00
2018-04-19T10:12:54.413Z,21.10
2018-04-19T10:15:22.025Z,22.70
2018-04-19T10:17:49.645Z,21.70
2018-04-19T10:20:17.268Z,19.00
2018-04-19T10:22:44.895Z,20.60
2018-04-19T10:25:13.276Z,21.60
2018-04-19T10:27:41.660Z,19.10
2018-04-19T10:30:10.202Z,18.00
2018-04-19T10:32:37.822Z,18.10
2018-04-19T10:35:05.444Z,20.10
2018-04-19T10:37:33.067Z,17.90
2018-04-19T10:40:00.692Z,18.00
2018-04-19T10:42:29.070Z,17.30
2018-04-19T10:44:56.691Z,17.10
2018-04-19T10:47:24.310Z,17.50
2018-04-19T10:49:52.695Z,17.70
2018-04-19T10:52:21.085Z,17.20
2018-04-19T10:54:49.476Z,17.80
2018-04-19T10:57:17.875Z,17.20
2018-04-19T10:59:45.494Z,17.20
2018-04-19T11:02:13.116Z,18.20
2018-04-19T11:04:40.734Z,17.50
2018-04-19T11:07:09.114Z,17.20
2018-04-19T11:09:36.739Z,17.40
2018-04-19T11:12:04.368Z,19.30
2018-04-19T11:14:32.751Z,16.90
2018-04-19T11:17:00.367Z,16.90
2018-04-19T11:19:28.000Z,16.70
2018-04-19T11:21:55.615Z,17.30
2018-04-19T11:24:23.239Z,15.80
2018-04-19T11:26:50.855Z,18.10
2018-04-19T11:29:18.479Z,17.00
2018-04-19T11:31:46.100Z,16.70
2018-04-19T11:34:14.474Z,17.00
2018-04-19T11:36:42.890Z,15.60
2018-04-19T11:39:11.263Z,18.20
2018-04-19T11:41:38.888Z,18.20
2018-04-19T11:44:06.507Z,17.80
2018-04-19T11:46:34.127Z,17.50
2018-04-19T11:49:01.748Z,16.80
2018-04-19T11:51:29.362Z,17.90
2018-04-19T11:53:57.003Z,16.30
2018-04-19T11:56:24.623Z,15.50
2018-04-19T11:58:52.243Z,16.00
2018-04-19T12:01:19.863Z,16.80
2018-04-19T12:03:47.484Z,15.20
2018-04-19T12:06:15.107Z,16.80
2018-04-19T12:08:43.479Z,18.30
2018-04-19T12:11:11.099Z,15.60
2018-04-19T12:13:40.286Z,16.00
2018-04-19T12:16:07.950Z,16.00
2018-04-19T12:18:35.537Z,21.00
2018-04-19T12:21:03.160Z,17.80
2018-04-19T12:23:30.783Z,16.40
2018-04-19T12:25:59.211Z,16.80
2018-04-19T12:28:26.879Z,16.80
2018-04-19T12:30:54.498Z,15.50
2018-04-19T12:33:22.882Z,17.30
2018-04-19T12:35:51.267Z,18.10
2018-04-19T12:40:50.682Z,19.90
2018-04-19T12:43:18.289Z,20.10
2018-04-19T12:45:45.912Z,22.30
2018-04-19T12:48:13.532Z,21.40
2018-04-19T12:50:41.152Z,20.00
2018-04-19T12:53:10.547Z,19.10
2018-04-19T12:55:38.175Z,19.10
2018-04-19T12:58:05.794Z,18.10
2018-04-19T13:00:34.200Z,18.00
2018-04-19T13:03:01.820Z,18.00
2018-04-19T13:05:29.439Z,18.90
2018-04-19T13:07:57.084Z,16.00
2018-04-19T13:10:25.459Z,15.90
2018-04-19T13:12:53.875Z,16.00
2018-04-19T13:15:21.471Z,15.90
2018-04-19T13:17:49.091Z,14.90
2018-04-19T13:20:18.663Z,14.10
2018-04-19T13:22:46.947Z,14.00
2018-04-19T13:25:14.563Z,15.20
2018-04-19T13:27:42.185Z,14.60
2018-04-19T13:30:09.794Z,20.90
2018-04-19T13:32:37.423Z,22.20
2018-04-19T13:35:05.803Z,23.30
2018-04-19T13:37:34.193Z,22.60
2018-04-19T13:40:02.580Z,23.30
2018-04-19T13:42:30.968Z,22.80
2018-04-19T13:44:59.351Z,21.70
2018-04-19T13:47:32.001Z,21.60
2018-04-19T13:49:59.675Z,23.90
2018-04-19T13:52:27.299Z,23.40
2018-04-19T13:54:54.916Z,24.20
2018-04-19T13:57:23.303Z,24.20
2018-04-19T13:59:51.686Z,23.20
2018-04-19T14:02:20.079Z,21.70
2018-04-19T14:04:47.732Z,21.70
2018-04-19T14:07:16.115Z,20.70
2018-04-19T14:09:44.561Z,19.10
2018-04-19T14:12:12.154Z,19.00
2018-04-19T14:14:40.535Z,19.30
2018-04-19T14:17:08.175Z,19.30
2018-04-19T14:19:35.789Z,20.00
2018-04-19T14:22:04.172Z,19.60
2018-04-19T14:24:32.555Z,20.70
2018-04-19T14:27:00.173Z,20.60
2018-04-19T14:29:27.791Z,21.50
2018-04-19T14:31:55.415Z,20.00
2018-04-19T14:34:23.030Z,18.90
2018-04-19T14:36:50.694Z,19.90
2018-04-19T14:39:20.059Z,18.80
2018-04-19T14:41:47.720Z,18.80
2018-04-19T14:44:15.335Z,18.50
2018-04-19T14:46:42.959Z,19.60
2018-04-19T14:49:10.607Z,19.10
2018-04-19T14:51:38.203Z,20.00
2018-04-19T14:54:05.827Z,19.40
2018-04-19T14:56:33.452Z,19.70
2018-04-19T14:59:01.839Z,20.60
2018-04-19T15:01:35.775Z,20.50
2018-04-19T15:04:03.400Z,21.50
2018-04-19T15:06:31.812Z,21.00
2018-04-19T15:08:59.422Z,21.00
2018-04-19T15:11:27.042Z,22.10
2018-04-19T15:13:54.664Z,22.10
2018-04-19T15:16:22.282Z,22.10
2018-04-19T15:18:49.894Z,20.90
2018-04-19T15:21:17.578Z,21.20
2018-04-19T15:23:51.866Z,21.00
2018-04-19T15:26:19.486Z,21.00
2018-04-19T15:28:47.098Z,21.90
2018-04-19T15:31:14.719Z,21.60
2018-04-19T15:33:42.339Z,23.90
2018-04-19T15:36:09.955Z,23.00
2018-04-19T15:38:38.676Z,22.40
2018-04-19T15:41:06.263Z,24.90
2018-04-19T15:43:33.891Z,26.60
2018-04-19T15:46:01.516Z,23.80
2018-04-19T15:48:29.898Z,25.10
2018-04-19T15:50:58.302Z,25.10
2018-04-19T15:53:25.922Z,25.10
2018-04-19T15:55:53.539Z,25.20
2018-04-19T15:58:21.167Z,25.10
2018-04-19T16:00:49.586Z,25.10
2018-04-19T16:03:17.187Z,25.10
2018-04-19T16:05:44.815Z,26.10
2018-04-19T16:08:12.437Z,26.60
2018-04-19T16:10:40.059Z,26.10
2018-04-19T16:13:07.674Z,26.50
2018-04-19T16:15:36.067Z,26.80
2018-04-19T16:18:16.952Z,26.80
2018-04-19T16:20:48.163Z,26.50
2018-04-19T16:23:15.803Z,26.60
2018-04-19T16:25:43.403Z,27.00
2018-04-19T16:28:11.046Z,27.50
2018-04-19T16:30:38.643Z,27.10
2018-04-19T16:33:17.204Z,27.60
2018-04-19T16:35:44.827Z,27.60
2018-04-19T16:38:13.206Z,27.40
2018-04-19T16:40:41.591Z,28.00
2018-04-19T16:43:09.983Z,27.80
2018-04-19T16:45:38.371Z,28.10
2018-04-19T16:48:05.989Z,28.10
2018-04-19T16:50:33.614Z,27.20
2018-04-19T16:53:01.231Z,27.80
2018-04-19T16:55:28.983Z,28.00
2018-04-19T16:57:56.607Z,27.70
2018-04-19T17:00:24.228Z,28.10
2018-04-19T17:02:51.845Z,29.80
2018-04-19T17:05:19.463Z,29.60
2018-04-19T17:07:47.113Z,28.40
2018-04-19T17:10:14.699Z,29.30
2018-04-19T17:12:42.318Z,33.90
2018-04-19T17:15:09.939Z,34.40
2018-04-19T17:17:37.555Z,36.20
2018-04-19T17:20:05.182Z,31.00
2018-04-19T17:22:33.559Z,33.00
2018-04-19T17:25:01.188Z,32.80
2018-04-19T17:27:28.803Z,33.80
2018-04-19T17:29:56.426Z,34.20
2018-04-19T17:32:24.047Z,35.50
2018-04-19T17:34:52.438Z,35.00
2018-04-19T17:37:20.086Z,35.00
2018-04-19T17:39:47.709Z,34.50
2018-04-19T17:42:15.336Z,34.70
2018-04-19T17:44:42.951Z,37.10
2018-04-19T17:47:10.563Z,41.40
2018-04-19T17:49:38.187Z,41.20
2018-04-19T17:52:05.807Z,40.10
2018-04-19T17:54:33.423Z,38.40
2018-04-19T17:57:01.041Z,40.00
2018-04-19T17:59:28.672Z,37.60
2018-04-19T18:01:56.295Z,41.60
2018-04-19T18:04:23.915Z,41.60
2018-04-19T18:06:51.529Z,42.20
2018-04-19T18:09:19.151Z,43.00
2018-04-19T18:11:46.771Z,42.60
2018-04-19T18:14:14.400Z,43.10
2018-04-19T18:16:42.019Z,45.50
2018-04-19T18:19:10.407Z,44.60
2018-04-19T18:21:38.791Z,46.70
2018-04-19T18:24:07.180Z,46.90
2018-04-19T18:26:35.567Z,48.90
2018-04-19T18:29:03.187Z,48.90
2018-04-19T18:31:30.812Z,49.20
2018-04-19T18:33:58.431Z,49.60
2018-04-19T18:36:26.063Z,51.90
2018-04-19T18:38:53.679Z,51.10
2018-04-19T18:41:22.066Z,53.90
2018-04-19T18:43:49.682Z,53.80
2018-04-19T18:46:17.311Z,54.00
2018-04-19T18:48:45.694Z,54.80
2018-04-19T18:51:16.007Z,54.70
2018-04-19T18:53:45.678Z,54.90
2018-04-19T18:56:13.280Z,54.60
2018-04-19T18:58:40.907Z,54.50
2018-04-19T19:01:09.968Z,55.30
2018-04-19T19:03:44.103Z,57.10
2018-04-19T19:06:11.903Z,57.20
2018-04-19T19:08:39.523Z,57.80
